Time;durP1;ratioP1;P1;durP2;ratioP2;P2;SDS_P1;SDS_P2;PMS_P1;PMS_P2;Temp;Humidity;BMP_temperature;BMP_pressure;BME280_temperature;BME280_humidity;BME280_pressure;Samples;Min_cycle;Max_cycle;Signal;HPM_P1;HPM_P2
2022/04/12 00:00:43;;;;;;;6.77;3.80;;;6.20;99.90;;;;;;5051488;28;20063;-34
2022/04/12 00:03:09;;;;;;;5.93;3.30;;;6.10;99.90;;;;;;5050993;28;20487;-34
2022/04/12 00:05:36;;;;;;;9.23;3.50;;;6.20;99.90;;;;;;5055973;28;20451;-34
2022/04/12 00:08:03;;;;;;;6.03;3.60;;;6.30;99.90;;;;;;5033775;28;20090;-33
2022/04/12 00:10:29;;;;;;;5.33;3.50;;;6.10;99.90;;;;;;5049191;28;20499;-33
2022/04/12 00:12:56;;;;;;;7.97;3.90;;;6.20;99.90;;;;;;5051463;28;20127;-33
2022/04/12 00:15:22;;;;;;;5.20;3.60;;;6.10;99.90;;;;;;5050773;28;20389;-33
2022/04/12 00:20:32;;;;;;;9.33;3.77;;;6.20;99.90;;;;;;5051322;28;20062;-31
2022/04/12 00:22:59;;;;;;;7.77;4.17;;;6.10;99.90;;;;;;5047839;28;20465;-33
2022/04/12 00:25:26;;;;;;;6.10;3.60;;;6.10;99.90;;;;;;5051379;28;20124;-31
2022/04/12 00:27:53;;;;;;;7.93;3.80;;;6.10;99.90;;;;;;5034207;28;20077;-33
2022/04/12 00:30:20;;;;;;;9.87;4.10;;;6.10;99.90;;;;;;5053437;28;20152;-31
2022/04/12 00:32:46;;;;;;;8.60;3.90;;;6.10;99.90;;;;;;5048625;28;20495;-31
2022/04/12 00:35:13;;;;;;;8.13;3.90;;;6.10;99.90;;;;;;5049755;28;20218;-35
2022/04/12 00:37:38;;;;;;;6.77;3.60;;;6.10;99.90;;;;;;5036221;28;20132;-33
2022/04/12 00:40:05;;;;;;;9.23;3.63;;;6.10;99.90;;;;;;5052050;28;20036;-31
2022/04/12 00:42:31;;;;;;;9.03;3.70;;;6.00;99.90;;;;;;5050053;28;20051;-34
2022/04/12 00:44:58;;;;;;;6.00;3.30;;;6.00;99.90;;;;;;5049558;28;20037;-32
2022/04/12 00:47:24;;;;;;;9.47;3.80;;;6.00;99.90;;;;;;5032575;28;20056;-34
2022/04/12 00:49:49;;;;;;;7.00;4.23;;;6.00;99.90;;;;;;5031195;28;20059;-31
2022/04/12 00:52:16;;;;;;;9.07;4.30;;;6.00;99.90;;;;;;5051941;28;20086;-34
2022/04/12 00:54:42;;;;;;;12.03;4.30;;;6.00;99.90;;;;;;5049646;28;20049;-34
2022/04/12 00:57:08;;;;;;;5.60;3.70;;;6.00;99.90;;;;;;5032784;28;20131;-33
2022/04/12 00:59:35;;;;;;;7.73;4.20;;;6.00;99.90;;;;;;5048056;28;20482;-34
2022/04/12 01:02:06;;;;;;;7.13;4.20;;;5.90;99.90;;;;;;5048330;28;20072;-34
2022/04/12 01:04:32;;;;;;;10.23;4.30;;;5.90;99.90;;;;;;5049173;28;20090;-32
2022/04/12 01:06:58;;;;;;;8.43;4.27;;;5.90;99.90;;;;;;5014700;28;20040;-32
2022/04/12 01:09:26;;;;;;;9.03;4.33;;;5.90;99.90;;;;;;5049492;28;20040;-35
2022/04/12 01:11:53;;;;;;;6.53;4.60;;;5.90;99.90;;;;;;5051882;28;20056;-34
2022/04/12 01:14:20;;;;;;;9.03;4.23;;;5.80;99.90;;;;;;5051565;28;20393;-33
2022/04/12 01:16:45;;;;;;;8.23;4.17;;;5.80;99.90;;;;;;5035896;28;20052;-31
2022/04/12 01:19:11;;;;;;;9.67;3.67;;;5.80;99.90;;;;;;5047850;28;20055;-33
2022/04/12 01:22:04;;;;;;;6.03;3.87;;;5.80;99.90;;;;;;5050653;28;20167;-34
2022/04/12 01:24:32;;;;;;;7.97;4.50;;;5.70;99.90;;;;;;5064117;28;20128;-31
2022/04/12 01:26:58;;;;;;;8.03;4.50;;;5.70;99.90;;;;;;5033865;28;20475;-32
2022/04/12 01:29:25;;;;;;;10.80;4.90;;;5.60;99.90;;;;;;5048733;28;20068;-35
2022/04/12 01:31:51;;;;;;;8.27;4.70;;;5.60;99.90;;;;;;5049067;28;20045;-31
2022/04/12 01:34:16;;;;;;;8.57;4.47;;;5.70;99.90;;;;;;5051193;28;20044;-31
2022/04/12 01:36:42;;;;;;;8.77;4.47;;;5.60;99.90;;;;;;5035159;28;20064;-36
2022/04/12 01:39:08;;;;;;;10.10;4.67;;;5.60;99.90;;;;;;5050371;28;20089;-33
2022/04/12 01:41:34;;;;;;;9.37;4.97;;;5.60;99.90;;;;;;5047247;28;20392;-33
2022/04/12 01:44:00;;;;;;;8.70;4.67;;;5.50;99.90;;;;;;5044590;28;20041;-31
2022/04/12 01:46:27;;;;;;;10.73;5.17;;;5.50;99.90;;;;;;5041392;28;20598;-32
2022/04/12 01:48:52;;;;;;;10.17;4.90;;;5.50;99.90;;;;;;5043800;28;20527;-34
2022/04/12 01:51:18;;;;;;;11.27;5.20;;;5.50;99.90;;;;;;5048844;28;20073;-30
2022/04/12 01:53:44;;;;;;;7.60;4.73;;;5.50;99.90;;;;;;5051210;28;20512;-31
2022/04/12 01:56:10;;;;;;;10.07;5.70;;;5.40;99.90;;;;;;5042557;28;20072;-35
2022/04/12 01:58:36;;;;;;;10.57;4.90;;;5.40;99.90;;;;;;5037057;28;20132;-33
2022/04/12 02:01:02;;;;;;;11.43;5.43;;;5.30;99.90;;;;;;5048057;28;20469;-34
2022/04/12 02:03:28;;;;;;;8.87;5.53;;;5.30;99.90;;;;;;5050656;28;20045;-31
2022/04/12 02:05:54;;;;;;;9.73;5.37;;;5.30;99.90;;;;;;5046618;28;20041;-32
2022/04/12 02:08:21;;;;;;;10.97;5.53;;;5.30;99.90;;;;;;5019271;28;20094;-33
2022/04/12 02:10:47;;;;;;;11.73;5.87;;;5.30;99.90;;;;;;5029304;28;20059;-31
2022/04/12 02:13:12;;;;;;;10.77;6.03;;;5.20;99.90;;;;;;5047912;28;20045;-33
2022/04/12 02:15:38;;;;;;;9.00;5.90;;;5.20;99.90;;;;;;5047761;28;20488;-34
2022/04/12 02:18:04;;;;;;;9.37;5.57;;;5.20;99.90;;;;;;5033811;28;20039;-34
2022/04/12 02:20:29;;;;;;;7.73;5.83;;;5.20;99.90;;;;;;5052343;28;20109;-31
2022/04/12 02:22:55;;;;;;;12.07;6.20;;;5.20;99.90;;;;;;5049856;28;20114;-33
2022/04/12 02:25:21;;;;;;;10.90;6.37;;;5.10;99.90;;;;;;5051163;28;20475;-33
2022/04/12 02:27:47;;;;;;;8.00;6.43;;;5.10;99.90;;;;;;5032986;28;20045;-34
2022/04/12 02:30:14;;;;;;;10.77;6.43;;;5.10;99.90;;;;;;5048242;28;20174;-33
2022/04/12 02:32:40;;;;;;;9.37;6.57;;;5.10;99.90;;;;;;5044018;28;20064;-30
2022/04/12 02:35:07;;;;;;;12.17;6.90;;;5.10;99.90;;;;;;5046077;28;20053;-32
2022/04/12 02:37:32;;;;;;;9.33;6.27;;;5.00;99.90;;;;;;5036714;28;20102;-38
2022/04/12 02:39:58;;;;;;;12.80;7.13;;;5.00;99.90;;;;;;5049583;28;20558;-33
2022/04/12 02:42:24;;;;;;;8.27;6.33;;;5.10;99.90;;;;;;5029835;28;20126;-35
2022/04/12 02:44:49;;;;;;;9.00;6.43;;;5.00;99.90;;;;;;5047331;28;20057;-33
2022/04/12 02:47:15;;;;;;;10.97;6.90;;;5.00;99.90;;;;;;5034804;28;20061;-32
2022/04/12 02:49:41;;;;;;;12.83;6.80;;;4.90;99.90;;;;;;5035475;28;20059;-31
2022/04/12 02:52:08;;;;;;;10.53;6.87;;;5.00;99.90;;;;;;5047498;28;20439;-31
2022/04/12 02:54:34;;;;;;;9.60;7.17;;;4.90;99.90;;;;;;5049134;28;20117;-31
2022/04/12 02:57:00;;;;;;;11.13;6.90;;;4.90;99.90;;;;;;5031499;28;20033;-34
2022/04/12 02:59:26;;;;;;;11.20;7.20;;;4.90;99.90;;;;;;5046807;28;20049;-31
2022/04/12 03:01:52;;;;;;;12.83;7.70;;;4.90;99.90;;;;;;5050388;28;20109;-37
2022/04/12 03:04:18;;;;;;;14.23;7.53;;;4.90;99.90;;;;;;5047585;28;20508;-32
2022/04/12 03:06:44;;;;;;;11.07;7.27;;;4.80;99.90;;;;;;5034466;28;20056;-30
2022/04/12 03:09:11;;;;;;;14.17;7.57;;;4.80;99.90;;;;;;5052112;28;20065;-33
2022/04/12 03:11:38;;;;;;;10.37;7.13;;;4.80;99.90;;;;;;5052628;28;20056;-31
2022/04/12 03:14:04;;;;;;;10.20;7.20;;;4.80;99.90;;;;;;5052598;28;20037;-34
2022/04/12 03:16:30;;;;;;;11.13;7.43;;;4.80;99.90;;;;;;5042162;28;20098;-32
2022/04/12 03:18:55;;;;;;;15.07;7.27;;;4.70;99.90;;;;;;5052881;28;20449;-34
2022/04/12 03:21:21;;;;;;;10.50;7.37;;;4.70;99.90;;;;;;5052092;28;20126;-32
2022/04/12 03:23:47;;;;;;;12.33;7.70;;;4.80;99.90;;;;;;5050990;28;20105;-34
2022/04/12 03:26:12;;;;;;;12.33;8.17;;;4.70;99.90;;;;;;5044599;28;20048;-33
2022/04/12 03:28:38;;;;;;;12.60;7.67;;;4.70;99.90;;;;;;5041227;28;20135;-32
2022/04/12 03:31:04;;;;;;;13.33;7.33;;;4.70;99.90;;;;;;5046699;28;20045;-31
2022/04/12 03:33:30;;;;;;;10.60;6.67;;;4.70;99.90;;;;;;5054567;28;20384;-32
2022/04/12 03:35:55;;;;;;;11.73;7.33;;;4.70;99.90;;;;;;5051377;28;20151;-31
2022/04/12 03:38:21;;;;;;;11.87;7.00;;;4.70;99.90;;;;;;5034863;28;20660;-35
2022/04/12 03:40:47;;;;;;;14.17;7.37;;;4.70;99.90;;;;;;5052945;28;20056;-31
2022/04/12 03:43:13;;;;;;;14.23;8.03;;;4.60;99.90;;;;;;5052950;28;20079;-34
2022/04/12 03:45:38;;;;;;;13.97;7.60;;;4.60;99.90;;;;;;5051780;28;20056;-33
2022/04/12 03:48:06;;;;;;;13.57;7.90;;;4.60;99.90;;;;;;5034025;28;20098;-31
2022/04/12 03:50:34;;;;;;;11.80;7.00;;;4.60;99.90;;;;;;5054383;28;20048;-30
2022/04/12 03:53:01;;;;;;;14.60;7.93;;;4.50;99.90;;;;;;5050078;28;20493;-34
2022/04/12 03:55:35;;;;;;;13.10;7.77;;;4.50;99.90;;;;;;5051195;28;20041;-34
2022/04/12 03:58:03;;;;;;;12.33;7.57;;;4.50;99.90;;;;;;5035302;28;20063;-32
2022/04/12 04:00:29;;;;;;;10.73;7.47;;;4.50;99.90;;;;;;5052355;28;20554;-32
2022/04/12 04:02:55;;;;;;;12.13;7.33;;;4.40;99.90;;;;;;5051211;28;20041;-34
2022/04/12 04:05:22;;;;;;;12.80;7.83;;;4.40;99.90;;;;;;5057556;28;20044;-31
2022/04/12 04:07:48;;;;;;;11.23;7.90;;;4.40;99.90;;;;;;5038306;28;20041;-32
2022/04/12 04:10:14;;;;;;;15.87;9.43;;;4.40;99.90;;;;;;5054439;28;20045;-33
2022/04/12 04:12:40;;;;;;;12.83;8.17;;;4.40;99.90;;;;;;5055642;28;20058;-32
2022/04/12 04:15:11;;;;;;;13.90;7.93;;;4.30;99.90;;;;;;5050683;28;20043;-33
2022/04/12 04:17:44;;;;;;;14.77;8.57;;;4.30;99.90;;;;;;5025933;28;20154;-33
2022/04/12 04:20:11;;;;;;;13.27;8.57;;;4.30;99.90;;;;;;5039784;28;20051;-34
2022/04/12 04:22:38;;;;;;;14.40;8.70;;;4.30;99.90;;;;;;5043995;28;20049;-34
2022/04/12 04:25:04;;;;;;;12.60;8.80;;;4.20;99.90;;;;;;5040741;28;20433;-31
2022/04/12 04:27:30;;;;;;;17.63;9.57;;;4.20;99.90;;;;;;5025180;28;20048;-35
2022/04/12 04:29:56;;;;;;;13.83;9.73;;;4.20;99.90;;;;;;5041902;28;20128;-31
2022/04/12 04:32:22;;;;;;;14.00;9.80;;;4.20;99.90;;;;;;5048954;28;20068;-33
2022/04/12 04:34:48;;;;;;;15.73;9.47;;;4.20;99.90;;;;;;5041976;28;20088;-35
2022/04/12 04:37:14;;;;;;;16.20;9.83;;;4.20;99.90;;;;;;5038172;28;20111;-33
2022/04/12 04:39:39;;;;;;;15.07;9.77;;;4.20;99.90;;;;;;5051215;28;20602;-33
2022/04/12 04:42:05;;;;;;;13.23;9.57;;;4.20;99.90;;;;;;5049786;28;20068;-33
2022/04/12 04:44:35;;;;;;;15.53;8.80;;;4.20;99.90;;;;;;5049516;28;20131;-31
2022/04/12 04:47:00;;;;;;;12.70;9.43;;;4.10;99.90;;;;;;5034792;28;20114;-35
2022/04/12 04:49:26;;;;;;;14.00;9.23;;;4.10;99.90;;;;;;5053130;28;20167;-33
2022/04/12 04:51:52;;;;;;;14.17;9.33;;;4.10;99.90;;;;;;5047733;28;20044;-32
2022/04/12 04:54:17;;;;;;;15.07;9.30;;;4.10;99.90;;;;;;5051855;28;20045;-32
2022/04/12 04:56:43;;;;;;;17.13;10.47;;;4.10;99.90;;;;;;5038577;28;20056;-34
2022/04/12 04:59:12;;;;;;;13.27;9.97;;;4.00;99.90;;;;;;5045275;28;20048;-34
2022/04/12 05:01:39;;;;;;;16.23;10.17;;;4.00;99.90;;;;;;5052241;28;20057;-32
2022/04/12 05:04:04;;;;;;;16.77;10.17;;;4.00;99.90;;;;;;5043543;28;20044;-32
2022/04/12 05:06:30;;;;;;;16.30;10.23;;;4.00;99.90;;;;;;5031364;28;20637;-30
2022/04/12 05:08:55;;;;;;;16.03;10.37;;;4.00;99.90;;;;;;5040655;28;20045;-34
2022/04/12 05:11:21;;;;;;;15.17;10.27;;;4.00;99.90;;;;;;5051300;28;20048;-36
2022/04/12 05:13:47;;;;;;;17.20;10.00;;;4.00;99.90;;;;;;5047054;28;20102;-33
2022/04/12 05:16:13;;;;;;;17.07;11.03;;;4.00;99.90;;;;;;5044127;28;20056;-34
2022/04/12 05:18:38;;;;;;;14.70;10.37;;;4.20;99.90;;;;;;5046219;28;20049;-33
2022/04/12 05:21:04;;;;;;;15.00;11.27;;;4.00;99.90;;;;;;5050017;28;20048;-34
2022/04/12 05:23:29;;;;;;;16.57;10.70;;;4.10;99.90;;;;;;5048558;28;20067;-32
2022/04/12 05:25:55;;;;;;;17.30;10.77;;;4.00;99.90;;;;;;5050182;28;20072;-31
2022/04/12 05:28:22;;;;;;;21.63;11.10;;;4.00;99.90;;;;;;5037147;28;20464;-35
2022/04/12 05:30:47;;;;;;;17.07;10.70;;;4.10;99.90;;;;;;5049109;28;20124;-33
2022/04/12 05:33:14;;;;;;;14.83;10.33;;;4.10;99.90;;;;;;5050961;28;20139;-35
2022/04/12 05:35:40;;;;;;;15.13;11.33;;;4.20;99.90;;;;;;5052896;28;20727;-32
2022/04/12 05:38:06;;;;;;;16.37;11.57;;;4.30;99.90;;;;;;5032970;28;20053;-33
2022/04/12 05:40:33;;;;;;;16.97;11.00;;;4.20;99.90;;;;;;5050034;28;20171;-34
2022/04/12 05:42:58;;;;;;;18.53;11.50;;;4.30;99.90;;;;;;5047601;28;20103;-33
2022/04/12 05:45:24;;;;;;;19.83;11.80;;;4.30;99.90;;;;;;5050555;28;20041;-32
2022/04/12 05:47:52;;;;;;;17.83;11.53;;;4.40;99.90;;;;;;5030214;28;20535;-35
2022/04/12 05:50:21;;;;;;;16.23;11.90;;;4.50;99.90;;;;;;5043565;28;20098;-35
2022/04/12 05:52:47;;;;;;;16.97;11.93;;;4.60;99.90;;;;;;5044152;28;20045;-35
2022/04/12 05:55:15;;;;;;;18.30;12.27;;;4.70;99.90;;;;;;5042344;28;20419;-33
2022/04/12 05:58:07;;;;;;;19.37;12.33;;;4.80;99.90;;;;;;5025297;28;20200;-33
2022/04/12 06:00:34;;;;;;;20.77;12.27;;;4.90;99.90;;;;;;5049410;28;20147;-35
2022/04/12 06:03:02;;;;;;;16.70;11.67;;;5.00;99.90;;;;;;5050186;28;20462;-32
2022/04/12 06:05:30;;;;;;;18.07;12.20;;;5.00;99.90;;;;;;5052349;28;20084;-35
2022/04/12 06:07:56;;;;;;;19.43;12.47;;;5.20;99.90;;;;;;5034041;28;20047;-36
2022/04/12 06:10:22;;;;;;;17.87;11.60;;;5.20;99.90;;;;;;5049805;28;20534;-32
2022/04/12 06:12:50;;;;;;;16.37;11.47;;;5.30;99.90;;;;;;5051003;28;20491;-34
2022/04/12 06:15:16;;;;;;;17.93;11.63;;;5.30;99.90;;;;;;5048477;28;20056;-35
2022/04/12 06:17:42;;;;;;;17.33;11.77;;;5.40;99.90;;;;;;5035865;28;20040;-31
2022/04/12 06:20:12;;;;;;;18.73;11.43;;;5.50;99.90;;;;;;5050755;28;20053;-34
2022/04/12 06:22:39;;;;;;;16.45;11.32;;;5.60;99.90;;;;;;5043965;28;20415;-33
2022/04/12 06:25:06;;;;;;;18.87;11.60;;;5.50;99.90;;;;;;5058033;28;20051;-32
2022/04/12 06:27:41;;;;;;;15.47;11.73;;;5.70;99.90;;;;;;5047676;28;20049;-33
2022/04/12 06:30:12;;;;;;;18.40;12.00;;;5.80;99.90;;;;;;5064912;28;20049;-33
2022/04/12 06:32:38;;;;;;;17.53;11.20;;;5.80;99.90;;;;;;5063133;28;20045;-34
2022/04/12 06:35:06;;;;;;;15.47;11.20;;;5.90;99.90;;;;;;5064413;28;20040;-31
2022/04/12 06:37:32;;;;;;;19.37;11.27;;;5.90;99.90;;;;;;5048845;28;20084;-31
2022/04/12 06:39:59;;;;;;;17.43;11.40;;;6.00;99.90;;;;;;5065382;28;20051;-34
2022/04/12 06:42:25;;;;;;;18.00;11.37;;;6.10;99.90;;;;;;5062801;28;20420;-33
2022/04/12 06:44:51;;;;;;;14.80;11.73;;;6.20;99.90;;;;;;5043721;28;20060;-31
2022/04/12 06:47:17;;;;;;;17.13;11.37;;;6.20;99.90;;;;;;5034101;28;20698;-34
2022/04/12 06:49:47;;;;;;;21.40;11.83;;;6.30;99.90;;;;;;5063365;28;20470;-33
2022/04/12 06:52:14;;;;;;;16.13;11.27;;;6.40;99.90;;;;;;5066440;28;20135;-33
2022/04/12 06:54:40;;;;;;;18.93;11.13;;;6.40;99.90;;;;;;5066424;28;20048;-32
2022/04/12 06:57:06;;;;;;;19.43;12.00;;;6.50;99.90;;;;;;5051021;28;20066;-34
2022/04/12 06:59:32;;;;;;;17.77;11.83;;;6.60;99.90;;;;;;5065403;28;20082;-33
2022/04/12 07:01:58;;;;;;;16.90;11.10;;;6.60;99.90;;;;;;5065824;28;20056;-32
2022/04/12 07:04:24;;;;;;;19.00;11.47;;;6.70;99.90;;;;;;5049656;28;20041;-34
2022/04/12 07:06:50;;;;;;;19.70;12.10;;;6.70;99.90;;;;;;5050925;28;20063;-31
2022/04/12 07:09:20;;;;;;;17.30;11.20;;;6.80;99.90;;;;;;5065596;28;20052;-35
2022/04/12 07:11:50;;;;;;;15.93;11.70;;;6.80;99.90;;;;;;5063594;28;20072;-31
2022/04/12 07:14:16;;;;;;;14.23;10.97;;;6.90;99.90;;;;;;5052781;28;20051;-33
2022/04/12 07:16:42;;;;;;;16.00;11.60;;;7.00;99.90;;;;;;5037087;28;20550;-34
2022/04/12 07:19:07;;;;;;;17.93;12.17;;;7.00;99.90;;;;;;5047836;28;20454;-31
2022/04/12 07:21:33;;;;;;;17.83;11.30;;;7.10;99.90;;;;;;5054596;28;20032;-32
2022/04/12 07:23:59;;;;;;;21.40;11.90;;;7.20;99.90;;;;;;5052894;28;20135;-32
2022/04/12 07:26:26;;;;;;;15.20;10.87;;;7.20;99.90;;;;;;5039643;28;20133;-32
2022/04/12 07:28:51;;;;;;;15.80;10.77;;;7.30;99.90;;;;;;5048333;28;20060;-31
2022/04/12 07:31:17;;;;;;;19.30;11.23;;;7.40;99.90;;;;;;5052023;28;20037;-31
2022/04/12 07:33:43;;;;;;;20.53;11.83;;;7.40;99.90;;;;;;5049981;28;20060;-32
2022/04/12 07:36:08;;;;;;;15.40;10.97;;;7.50;99.90;;;;;;5047192;28;20037;-33
2022/04/12 07:38:34;;;;;;;15.20;10.47;;;7.60;99.90;;;;;;5042482;28;20742;-33
2022/04/12 07:41:00;;;;;;;21.00;11.17;;;7.70;99.90;;;;;;5052353;28;20103;-30
2022/04/12 07:43:25;;;;;;;17.23;10.87;;;7.80;99.90;;;;;;5050877;28;20040;-33
2022/04/12 07:45:51;;;;;;;15.77;10.70;;;7.90;99.90;;;;;;5052597;28;20064;-34
2022/04/12 07:48:17;;;;;;;17.87;10.53;;;7.90;99.90;;;;;;5035809;28;20032;-33
2022/04/12 07:50:42;;;;;;;19.70;11.50;;;8.00;99.90;;;;;;5052819;28;20071;-31
2022/04/12 07:53:08;;;;;;;15.57;10.93;;;8.10;99.90;;;;;;5049364;28;20773;-31
2022/04/12 07:55:34;;;;;;;16.40;10.93;;;8.20;99.90;;;;;;5050446;28;20036;-35
2022/04/12 07:58:00;;;;;;;15.27;10.73;;;8.20;99.90;;;;;;5035218;28;20868;-33
2022/04/12 08:00:25;;;;;;;14.13;11.17;;;8.30;99.90;;;;;;5052515;28;20072;-33
2022/04/12 08:02:51;;;;;;;15.00;11.00;;;8.40;99.90;;;;;;5051336;28;20111;-31
2022/04/12 08:05:17;;;;;;;16.03;10.83;;;8.50;99.90;;;;;;5051119;28;20049;-34
2022/04/12 08:07:48;;;;;;;17.67;10.77;;;8.50;99.90;;;;;;5033859;28;20048;-33
2022/04/12 08:10:17;;;;;;;;;;;8.60;99.90;;;;;;5048845;28;20051;-33
2022/04/12 08:12:44;;;;;;;15.50;10.30;;;8.70;99.90;;;;;;5051435;28;19928;-34
2022/04/12 08:15:11;;;;;;;14.57;10.63;;;8.70;99.90;;;;;;5053504;28;20049;-34
2022/04/12 08:17:37;;;;;;;17.30;11.57;;;8.90;99.90;;;;;;5036722;28;20052;-31
2022/04/12 08:20:05;;;;;;;15.47;10.73;;;8.90;99.90;;;;;;5052774;28;20047;-35
2022/04/12 08:22:32;;;;;;;16.77;10.50;;;9.00;99.90;;;;;;5049584;28;20735;-33
2022/04/12 08:24:58;;;;;;;14.17;10.77;;;9.10;99.90;;;;;;5052639;28;20049;-31
2022/04/12 08:27:24;;;;;;;16.23;10.80;;;9.20;99.90;;;;;;5035020;28;20056;-34
2022/04/12 08:29:51;;;;;;;16.17;10.60;;;9.20;99.90;;;;;;5050589;28;20052;-33
2022/04/12 08:32:17;;;;;;;13.50;10.50;;;9.30;99.90;;;;;;5049652;28;20572;-33
2022/04/12 08:34:43;;;;;;;17.23;10.60;;;9.40;99.90;;;;;;5049080;28;20429;-35
2022/04/12 08:37:09;;;;;;;16.40;10.40;;;9.50;99.90;;;;;;5035306;28;20403;-31
2022/04/12 08:39:35;;;;;;;18.47;10.10;;;9.60;99.90;;;;;;5050284;28;20474;-32
2022/04/12 08:42:03;;;;;;;17.10;11.27;;;9.70;99.90;;;;;;5054158;28;20053;-34
2022/04/12 08:44:30;;;;;;;15.33;10.23;;;9.70;99.90;;;;;;5049359;28;20132;-34
2022/04/12 08:46:57;;;;;;;13.30;9.73;;;9.80;99.90;;;;;;5034162;28;20057;-31
2022/04/12 08:49:24;;;;;;;14.33;9.73;;;9.90;99.90;;;;;;5047003;28;20068;-33
2022/04/12 08:51:50;;;;;;;17.13;10.23;;;10.00;99.90;;;;;;5049236;28;20474;-34
2022/04/12 08:54:19;;;;;;;15.37;10.03;;;10.10;99.90;;;;;;5048753;28;20474;-35
2022/04/12 08:56:49;;;;;;;18.00;9.97;;;10.10;99.90;;;;;;5035431;28;20060;-35
2022/04/12 08:59:16;;;;;;;14.10;10.33;;;10.20;99.90;;;;;;5049948;28;20041;-33
2022/04/12 09:01:42;;;;;;;17.87;10.37;;;10.30;99.90;;;;;;5050878;28;20048;-34
2022/04/12 09:04:11;;;;;;;15.07;10.47;;;10.40;99.90;;;;;;5046568;28;20415;-33
2022/04/12 09:06:57;;;;;;;13.87;9.40;;;10.50;99.90;;;;;;5034809;28;20962;-33
2022/04/12 09:09:31;;;;;;;14.23;9.40;;;10.60;99.90;;;;;;5049492;28;20053;-31
2022/04/12 09:12:00;;;;;;;15.93;10.00;;;10.70;99.90;;;;;;5051073;28;20515;-33
2022/04/12 09:14:36;;;;;;;13.60;10.00;;;10.80;99.90;;;;;;5048010;28;20056;-34
2022/04/12 09:17:06;;;;;;;14.40;10.13;;;10.80;99.90;;;;;;5037186;28;20226;-32
2022/04/12 09:19:40;;;;;;;16.53;11.17;;;10.90;99.90;;;;;;5049574;28;20044;-35
2022/04/12 09:22:17;;;;;;;14.40;10.10;;;11.00;99.90;;;;;;5049012;28;20143;-34
2022/04/12 09:24:51;;;;;;;15.57;10.43;;;11.10;99.90;;;;;;5049527;28;20873;-34
2022/04/12 09:27:35;;;;;;;15.30;10.80;;;11.20;99.90;;;;;;5034041;28;20049;-33
2022/04/12 09:30:04;;;;;;;16.58;9.65;;;11.30;99.90;;;;;;5051982;28;20053;-35
2022/04/12 09:32:35;;;;;;;18.00;10.13;;;11.40;99.90;;;;;;5050339;28;20045;-34
2022/04/12 09:35:01;;;;;;;15.65;9.55;;;11.40;99.90;;;;;;5050247;28;20393;-33
2022/04/12 09:37:29;;;;;;;14.40;10.02;;;11.50;99.90;;;;;;5034061;28;20041;-35
2022/04/12 09:40:02;;;;;;;16.92;9.85;;;11.60;99.90;;;;;;5049858;28;20056;-35
2022/04/12 09:42:48;;;;;;;13.75;10.05;;;11.70;99.90;;;;;;5049810;28;20048;-34
2022/04/12 09:45:16;;;;;;;15.35;10.07;;;11.80;99.90;;;;;;5049273;28;20048;-32
2022/04/12 09:47:43;;;;;;;14.35;9.50;;;11.90;99.90;;;;;;5035376;28;20040;-32
2022/04/12 09:50:10;;;;;;;14.88;9.63;;;12.00;99.90;;;;;;5050585;28;20041;-36
2022/04/12 09:52:37;;;;;;;12.88;9.27;;;12.20;99.90;;;;;;5049060;28;20041;-32
2022/04/12 09:55:03;;;;;;;15.07;9.65;;;12.20;99.90;;;;;;5046493;28;20161;-34
2022/04/12 09:57:30;;;;;;;13.32;9.52;;;12.30;99.90;;;;;;5037590;28;20077;-34
2022/04/12 09:59:57;;;;;;;16.67;10.05;;;12.40;99.90;;;;;;5046878;28;20594;-31
2022/04/12 10:02:24;;;;;;;14.65;9.63;;;12.50;99.90;;;;;;5038193;28;20552;-31
2022/04/12 10:04:55;;;;;;;13.93;9.52;;;12.60;99.90;;;;;;5045291;28;20049;-35
2022/04/12 10:07:22;;;;;;;14.40;9.77;;;12.70;99.90;;;;;;5031164;28;20053;-32
2022/04/12 10:09:50;;;;;;;15.52;10.32;;;12.80;99.90;;;;;;5045964;28;20041;-35
2022/04/12 10:12:17;;;;;;;14.52;9.45;;;12.90;99.90;;;;;;5048587;28;20107;-32
2022/04/12 10:14:43;;;;;;;13.18;9.95;;;13.00;99.90;;;;;;5045748;28;20381;-34
2022/04/12 10:17:11;;;;;;;15.90;9.68;;;13.10;99.90;;;;;;5036420;28;20059;-34
2022/04/12 10:19:38;;;;;;;13.77;9.75;;;13.20;99.90;;;;;;5047628;28;20073;-32
2022/04/12 10:22:04;;;;;;;13.90;9.75;;;13.20;99.90;;;;;;5050848;28;20083;-34
2022/04/12 10:24:30;;;;;;;15.65;9.30;;;13.40;99.90;;;;;;5048731;28;20658;-34
2022/04/12 10:26:57;;;;;;;13.50;9.07;;;13.50;99.90;;;;;;5037311;28;20124;-33
2022/04/12 10:29:22;;;;;;;13.77;9.55;;;13.60;99.90;;;;;;5052447;28;20136;-34
2022/04/12 10:32:02;;;;;;;13.52;9.75;;;13.70;99.90;;;;;;5051627;28;20070;-36
2022/04/12 10:34:27;;;;;;;14.18;9.20;;;13.80;99.90;;;;;;5051184;28;20040;-34
2022/04/12 10:37:09;;;;;;;12.50;9.45;;;13.90;99.90;;;;;;5039628;28;20064;-31
2022/04/12 10:39:38;;;;;;;13.77;9.82;;;14.00;99.90;;;;;;5047399;28;20059;-33
2022/04/12 10:42:10;;;;;;;13.60;9.40;;;14.10;99.90;;;;;;5048339;28;20040;-34
2022/04/12 10:44:46;;;;;;;13.43;10.65;;;14.20;99.90;;;;;;5045568;28;20547;-34
2022/04/12 10:47:22;;;;;;;14.60;9.82;;;14.30;99.90;;;;;;5042041;28;20105;-36
2022/04/12 10:50:04;;;;;;;13.43;9.52;;;14.40;99.90;;;;;;5057280;28;20139;-35
2022/04/12 10:52:43;;;;;;;15.05;9.60;;;14.50;99.90;;;;;;5054459;28;20572;-35
2022/04/12 10:55:23;;;;;;;13.60;9.73;;;14.60;99.90;;;;;;5057727;28;20048;-34
2022/04/12 10:57:50;;;;;;;12.57;9.18;;;14.70;99.90;;;;;;5039341;28;20645;-35
2022/04/12 11:00:16;;;;;;;17.25;10.07;;;14.80;99.90;;;;;;5053770;28;20041;-35
2022/04/12 11:02:56;;;;;;;13.68;9.32;;;14.90;99.90;;;;;;5050664;28;20048;-35
2022/04/12 11:05:38;;;;;;;13.48;9.50;;;15.00;99.90;;;;;;5051329;28;20114;-34
2022/04/12 11:08:28;;;;;;;14.00;10.02;;;15.10;99.90;;;;;;5033369;28;20052;-32
2022/04/12 11:10:55;;;;;;;16.27;9.77;;;15.10;99.90;;;;;;5050246;28;20061;-33
2022/04/12 11:13:22;;;;;;;13.38;9.45;;;15.20;99.90;;;;;;5052586;28;20872;-35
2022/04/12 11:16:16;;;;;;;11.23;9.43;;;15.30;99.90;;;;;;5050790;28;20075;-34
2022/04/12 11:18:54;;;;;;;14.70;9.70;;;15.40;99.90;;;;;;5042742;28;20528;-31
2022/04/12 11:21:25;;;;;;;11.40;8.57;;;15.40;99.90;;;;;;5050161;28;20049;-32
2022/04/12 11:23:55;;;;;;;12.63;10.02;;;15.50;99.90;;;;;;5051375;28;20452;-35
2022/04/12 11:26:40;;;;;;;13.52;9.38;;;15.60;99.90;;;;;;5039018;28;21011;-35
2022/04/12 11:29:15;;;;;;;14.43;9.80;;;15.60;99.90;;;;;;5049119;28;20604;-32
2022/04/12 11:31:50;;;;;;;17.00;9.82;;;15.70;99.90;;;;;;5045135;28;20045;-35
2022/04/12 11:34:17;;;;;;;12.60;8.80;;;15.70;99.90;;;;;;5053125;28;20400;-34
2022/04/12 11:36:52;;;;;;;15.57;9.75;;;15.80;99.90;;;;;;5043013;28;20638;-35
2022/04/12 11:39:18;;;;;;;11.68;9.15;;;15.90;99.90;;;;;;5061185;28;20559;-34
2022/04/12 11:41:44;;;;;;;14.13;9.38;;;15.90;99.90;;;;;;5059447;28;20441;-35
2022/04/12 11:44:10;;;;;;;13.65;9.05;;;16.00;99.90;;;;;;5048960;28;20049;-32
2022/04/12 11:46:36;;;;;;;13.02;8.88;;;16.00;99.90;;;;;;5027439;28;20559;-33
2022/04/12 11:49:11;;;;;;;11.23;8.95;;;16.10;99.90;;;;;;5043299;28;20492;-33
2022/04/12 11:51:38;;;;;;;12.63;9.57;;;16.20;99.90;;;;;;5058516;28;20357;-34
2022/04/12 11:54:24;;;;;;;11.63;9.23;;;16.20;99.90;;;;;;5058771;28;20170;-31
2022/04/12 11:57:13;;;;;;;11.85;9.68;;;16.30;99.90;;;;;;5040530;28;20048;-34
2022/04/12 11:59:56;;;;;;;13.48;9.57;;;16.30;99.90;;;;;;5053034;28;20062;-36
2022/04/12 12:02:30;;;;;;;12.95;9.23;;;16.40;99.90;;;;;;5049116;28;20450;-33
2022/04/12 12:04:59;;;;;;;12.00;9.05;;;16.40;99.90;;;;;;5052278;28;20037;-35
2022/04/12 12:07:25;;;;;;;12.43;9.90;;;16.50;99.90;;;;;;5031777;28;20076;-34
2022/04/12 12:09:52;;;;;;;11.35;8.75;;;16.50;99.90;;;;;;5047769;28;22058;-34
2022/04/12 12:12:18;;;;;;;14.50;9.25;;;16.60;99.90;;;;;;5049579;28;20656;-35
2022/04/12 12:14:44;;;;;;;12.60;9.77;;;16.60;99.90;;;;;;5053376;28;20147;-35
2022/04/12 12:17:18;;;;;;;13.82;10.00;;;16.70;99.90;;;;;;5038868;28;20047;-34
2022/04/12 12:19:44;;;;;;;11.98;9.63;;;16.80;99.90;;;;;;5048831;28;20053;-35
2022/04/12 12:22:12;;;;;;;13.82;10.23;;;16.90;99.90;;;;;;5049214;28;20423;-32
2022/04/12 12:24:51;;;;;;;14.52;9.68;;;16.90;99.90;;;;;;5051558;28;20063;-33
2022/04/12 12:27:33;;;;;;;12.48;9.18;;;17.00;99.90;;;;;;5033700;28;20049;-35
2022/04/12 12:30:09;;;;;;;12.40;9.45;;;17.00;99.90;;;;;;5048881;28;20040;-33
2022/04/12 12:32:37;;;;;;;12.93;9.50;;;17.10;99.90;;;;;;5030882;28;20492;-33
2022/04/12 12:35:11;;;;;;;12.75;9.27;;;17.10;99.90;;;;;;5052754;28;20048;-35
2022/04/12 12:37:38;;;;;;;12.10;9.38;;;17.20;99.90;;;;;;5033738;28;20134;-34
2022/04/12 12:40:19;;;;;;;12.82;9.13;;;17.20;99.90;;;;;;5047023;28;20078;-35
2022/04/12 12:42:45;;;;;;;14.95;9.15;;;17.30;99.90;;;;;;5049283;28;21107;-35
2022/04/12 12:45:14;;;;;;;13.10;9.00;;;17.30;99.90;;;;;;5046592;28;20404;-34
2022/04/12 12:47:41;;;;;;;14.30;9.27;;;17.40;99.90;;;;;;5034888;28;20125;-34
2022/04/12 12:50:11;;;;;;;10.80;8.68;;;17.40;99.90;;;;;;5049763;28;20079;-35